Terminal Aerodrome Forecast
Issued by NWS Sioux Falls, SD

Home | Current Version | Previous Version | Text Only | Print | Product List | Glossary On
Versions: 1 2 3 4 5 6 7 8 9 10 11 12 13 14 15 16 17 18
029
FTUS43 KFSD 171138
TAFHON
TAF
KHON 171138Z 1712/1812 VRB03KT 4SM BR SCT003 OVC040
      TEMPO 1712/1714 1 1/2SM BR
     FM171500 VRB03KT 5SM BR OVC045
     FM171700 28004KT P6SM OVC080
     FM172100 20005KT P6SM BKN090
     FM180000 17006KT P6SM SCT110=

USA.gov is the U.S. government's official web portal to all federal, state and local government web resources and services.